Scroll down
FLIGHT INFORMATION
Southwest Airlines

SWA331

At Arrival Gate

KBOS
 KIAD
DATE: 2021-03-31
GATE: C16
GATE DEPARTURE: 22:10
TAKEOFF: 22:20
DATE: 2021-03-31
GATE: B49
LANDING: 23:36
GATE ARRIVAL: 23:43
FLIGHT DATA
Crew: 
Speed: 
473 kts
Altitude: 
38,015 ft
Stage Length: 
358.2 nm
Block Time: 
1.5 hrs
Flight Time: 
1.3 hrs
Fuel Used: 
7,294 lb
Cleared Route: KBOS BLZZR BAF KIAD
TRACK DATA
50,000 ft 1,000 kts
AIRCRAFT INFO AND CUMULATIVE STATS
Aircraft Type: 
B737BW
Registration: 
SELCAL: 
MSN/LN: 
32753 / 1222
Operator: 
Total Flights: 
2
Total Block Time: 
3.3 hrs
Total Flight Time: 
2.9 hrs
Total Fuel Used: 
17,146 lb
DATALINK LOG | Newest first | Current as of: 2022-10-04 20:11:06
LABEL SEQUENCE CONTENT Dn/Up
5Z484131 MAR 21 23:47:28z / FLT DECK GOOD / ACF POS GOOD / GRND SERVICES GOOD / MAINT GOOD▼ Dn
QD453823:43 7.3▼ Dn
QC383323:36▼ Dn
GA3135GATE B49▲ Up
GR3125KIAD 23:36 MAAS 00 YP/UM 00/00 WCHR/S/C 02/01/00 HI-VAL NO DIPL/VIP NO▼ Dn
2U1443KIAD 312256Z 21003KT 10SM SCT007 BKN012 OVC019 17/16 A2990 RMK AO2 T01670161▲ Up
2S1509KIAD▼ Dn
QB222022:20▼ Dn
QA111122:10 14.7▼ Dn
2U5004KBOS 312054Z 20016G24KT 10SM FEW032 SCT050 BKN180 OVC250 18/08 A2999 RMK AO2 PK WND 21028/2037 SLP154 T01830083 58022▲ Up
2S5155KBOS▼ Dn
A35104CLEARED TO KIAD VIA BLZZR4 BLZZR BAF HYPER8. SQUAWK 7453.▲ Up
Q04953[LINK ACK]▲ Up
Q04953[LINK TEST]▼ Dn


AIRCRAFT HISTORY
FLIGHT DATE FLIGHT NO. ORIGIN DESTINATION CLEARED ROUTE BLOCK TIME FLIGHT TIME FUEL USED PILOT
2021-04-30SWA882KIAD KMDW KIAD MCRAY IHD LEJOY AVERE KODIE KOZAR LIVER LEPEW SRPEN DJB BAGEL KMDW1.9 hrs1.6 hrs9,852 lbMike Dryden
2021-03-31SWA331KBOS KIAD KBOS BLZZR BAF KIAD1.5 hrs1.3 hrs7,294 lbJames W.